Time,TemperatureF,DewpointF,PressureIn,WindDirection,WindDirectionDegrees,WindSpeedMPH,WindSpeedGustMPH,Humidity,HourlyPrecipIn,Conditions,Clouds,dailyrainin,SolarRadiationWatts/m^2,SoftwareType,DateUTC
2013-02-11 00:21:00,51.0,18.0,-100.00,North,9,13.0,23.0,27,0.00,,,0.00,0.000000,,2013-02-11 08:21:00,
2013-02-11 00:31:00,51.0,18.0,-100.00,North,9,13.0,23.0,27,0.00,,,0.00,0.000000,,2013-02-11 08:31:00,
2013-02-11 00:42:00,51.0,18.0,-100.00,North,9,13.0,23.0,27,0.00,,,0.00,0.000000,,2013-02-11 08:42:00,
2013-02-11 00:52:00,51.0,18.0,-100.00,North,9,13.0,23.0,27,0.00,,,0.00,0.000000,,2013-02-11 08:52:00,
2013-02-11 01:12:00,51.0,17.0,-100.00,North,4,15.0,25.0,26,0.00,,,0.00,0.000000,,2013-02-11 09:12:00,
2013-02-11 01:21:00,51.0,17.0,-100.00,North,4,15.0,25.0,26,0.00,,,0.00,0.000000,,2013-02-11 09:21:00,
2013-02-11 01:31:00,51.0,17.0,-100.00,North,4,15.0,25.0,26,0.00,,,0.00,0.000000,,2013-02-11 09:31:00,
2013-02-11 02:21:00,51.0,16.0,-100.00,North,2,11.0,26.0,25,-99.99,,,0.00,0.000000,,2013-02-11 10:21:00,
2013-02-11 02:31:00,51.0,16.0,-100.00,North,2,11.0,26.0,25,-99.99,,,0.00,0.000000,,2013-02-11 10:31:00,
2013-02-11 03:22:00,50.0,17.0,-100.00,North,1,12.0,26.0,27,-99.99,,,0.00,0.000000,,2013-02-11 11:22:00,
2013-02-11 03:32:00,50.0,17.0,-100.00,North,1,12.0,26.0,27,-99.99,,,0.00,0.000000,,2013-02-11 11:32:00,
2013-02-11 03:42:00,50.0,17.0,-100.00,North,1,12.0,26.0,27,-99.99,,,0.00,0.000000,,2013-02-11 11:42:00,
2013-02-11 03:52:00,50.0,17.0,-100.00,North,1,12.0,26.0,27,-99.99,,,0.00,0.000000,,2013-02-11 11:52:00,
2013-02-11 04:22:00,48.0,17.0,-100.00,NNW,345,6.0,16.0,29,0.00,,,-99.99,0.000000,,2013-02-11 12:22:00,
2013-02-11 04:31:00,48.0,17.0,-100.00,NNW,345,6.0,16.0,29,0.00,,,-99.99,0.000000,,2013-02-11 12:31:00,
2013-02-11 04:42:00,48.0,17.0,-100.00,NNW,345,6.0,16.0,29,0.00,,,-99.99,0.000000,,2013-02-11 12:42:00,
2013-02-11 04:52:00,48.0,17.0,-100.00,NNW,345,6.0,16.0,29,0.00,,,-99.99,0.000000,,2013-02-11 12:52:00,
2013-02-11 05:21:00,48.0,18.0,-100.00,North,359,10.0,20.0,30,0.00,,,-99.99,0.000000,,2013-02-11 13:21:00,
2013-02-11 05:32:00,48.0,18.0,-100.00,North,359,10.0,20.0,30,0.00,,,-99.99,0.000000,,2013-02-11 13:32:00,
2013-02-11 05:41:00,48.0,18.0,-100.00,North,359,10.0,20.0,30,0.00,,,-99.99,0.000000,,2013-02-11 13:41:00,
2013-02-11 05:51:00,48.0,18.0,-100.00,North,359,10.0,20.0,30,0.00,,,-99.99,0.000000,,2013-02-11 13:51:00,
2013-02-11 06:21:00,49.0,20.0,-100.00,NNE,14,18.0,28.0,32,0.00,,,-99.99,0.000000,,2013-02-11 14:21:00,
2013-02-11 06:32:00,49.0,20.0,-100.00,NNE,14,18.0,28.0,32,0.00,,,-99.99,0.000000,,2013-02-11 14:32:00,
2013-02-11 07:22:00,49.0,19.0,-100.00,North,0,14.0,30.0,30,-99.99,,,0.00,0.000000,,2013-02-11 15:22:00,
2013-02-11 07:32:00,49.0,19.0,-100.00,North,0,14.0,30.0,30,-99.99,,,0.00,0.000000,,2013-02-11 15:32:00,
2013-02-11 08:21:00,50.0,20.0,-100.00,North,1,13.0,24.0,30,-99.99,,,0.00,0.000000,,2013-02-11 16:21:00,
2013-02-11 08:32:00,50.0,20.0,-100.00,North,1,13.0,24.0,30,-99.99,,,0.00,0.000000,,2013-02-11 16:32:00,
2013-02-11 08:52:00,50.0,20.0,-100.00,North,1,13.0,24.0,30,-99.99,,,0.00,0.000000,,2013-02-11 16:52:00,
2013-02-11 09:21:00,53.0,22.0,-100.00,North,359,7.0,22.0,29,0.00,,,0.00,0.000000,,2013-02-11 17:21:00,
2013-02-11 10:21:00,55.0,25.0,-100.00,SW,226,3.0,8.0,31,0.00,,,0.00,0.000000,,2013-02-11 18:21:00,
2013-02-11 10:32:00,55.0,25.0,-100.00,SW,226,3.0,8.0,31,0.00,,,0.00,0.000000,,2013-02-11 18:32:00,
2013-02-11 10:42:00,55.0,25.0,-100.00,SW,226,3.0,8.0,31,0.00,,,0.00,0.000000,,2013-02-11 18:42:00,
2013-02-11 10:52:00,55.0,25.0,-100.00,SW,226,3.0,8.0,31,0.00,,,0.00,0.000000,,2013-02-11 18:52:00,
2013-02-11 11:21:00,59.0,31.0,-100.00,North,11,4.0,11.0,35,0.00,,,0.00,0.000000,,2013-02-11 19:21:00,
2013-02-11 11:31:00,59.0,31.0,-100.00,North,11,4.0,11.0,35,0.00,,,0.00,0.000000,,2013-02-11 19:31:00,
2013-02-11 11:41:00,59.0,31.0,-100.00,North,11,4.0,11.0,35,0.00,,,0.00,0.000000,,2013-02-11 19:41:00,
2013-02-11 11:51:00,59.0,31.0,-100.00,North,11,4.0,11.0,35,0.00,,,0.00,0.000000,,2013-02-11 19:51:00,
2013-02-11 12:21:00,56.0,36.0,-100.00,South,182,6.0,9.0,46,0.00,,,-99.99,0.000000,,2013-02-11 20:21:00,
2013-02-11 12:31:00,56.0,36.0,-100.00,South,182,6.0,9.0,46,0.00,,,-99.99,0.000000,,2013-02-11 20:31:00,
2013-02-11 12:41:00,56.0,36.0,-100.00,South,182,6.0,9.0,46,0.00,,,-99.99,0.000000,,2013-02-11 20:41:00,
2013-02-11 12:52:00,56.0,36.0,-100.00,South,182,6.0,9.0,46,0.00,,,-99.99,0.000000,,2013-02-11 20:52:00,
2013-02-11 13:21:00,58.0,33.0,-100.00,SSW,204,3.0,11.0,38,0.00,,,0.00,0.000000,,2013-02-11 21:21:00,
2013-02-11 13:31:00,58.0,33.0,-100.00,SSW,204,3.0,11.0,38,0.00,,,0.00,0.000000,,2013-02-11 21:31:00,
2013-02-11 13:41:00,58.0,33.0,-100.00,SSW,204,3.0,11.0,38,0.00,,,0.00,0.000000,,2013-02-11 21:41:00,
2013-02-11 13:51:00,58.0,33.0,-100.00,SSW,204,3.0,11.0,38,0.00,,,0.00,0.000000,,2013-02-11 21:51:00,
2013-02-11 14:21:00,59.0,32.0,-100.00,SW,215,3.0,13.0,36,0.00,,,0.00,0.000000,,2013-02-11 22:21:00,
2013-02-11 14:32:00,59.0,32.0,-100.00,SW,215,3.0,13.0,36,0.00,,,0.00,0.000000,,2013-02-11 22:32:00,
2013-02-11 14:41:00,59.0,32.0,-100.00,SW,215,3.0,13.0,36,0.00,,,0.00,0.000000,,2013-02-11 22:41:00,
2013-02-11 14:52:00,59.0,32.0,-100.00,SW,215,3.0,13.0,36,0.00,,,0.00,0.000000,,2013-02-11 22:52:00,
2013-02-11 15:21:00,61.0,31.0,-100.00,SSW,194,2.0,11.0,32,0.00,,,0.00,0.000000,,2013-02-11 23:21:00,
2013-02-11 15:31:00,61.0,31.0,-100.00,SSW,194,2.0,11.0,32,0.00,,,0.00,0.000000,,2013-02-11 23:31:00,
2013-02-11 15:41:00,61.0,31.0,-100.00,SSW,194,2.0,11.0,32,0.00,,,0.00,0.000000,,2013-02-11 23:41:00,
2013-02-11 15:52:00,61.0,31.0,-100.00,SSW,194,2.0,11.0,32,0.00,,,0.00,0.000000,,2013-02-11 23:52:00,
2013-02-11 16:21:00,61.0,30.0,-100.00,SSW,196,4.0,10.0,31,0.00,,,0.00,0.000000,,2013-02-12 00:21:00,
2013-02-11 16:32:00,61.0,30.0,-100.00,SSW,196,4.0,10.0,31,0.00,,,0.00,0.000000,,2013-02-12 00:32:00,
2013-02-11 16:42:00,61.0,30.0,-100.00,SSW,196,4.0,10.0,31,0.00,,,0.00,0.000000,,2013-02-12 00:42:00,
2013-02-11 16:51:00,61.0,30.0,-100.00,SSW,196,4.0,10.0,31,0.00,,,0.00,0.000000,,2013-02-12 00:51:00,
2013-02-11 17:21:00,57.0,31.0,-100.00,SSE,165,0.0,9.0,37,0.00,,,0.00,0.000000,,2013-02-12 01:21:00,
2013-02-11 17:31:00,57.0,31.0,-100.00,SSE,165,0.0,9.0,37,0.00,,,0.00,0.000000,,2013-02-12 01:31:00,
2013-02-11 17:41:00,57.0,31.0,-100.00,SSE,165,0.0,9.0,37,0.00,,,0.00,0.000000,,2013-02-12 01:41:00,
2013-02-11 17:51:00,57.0,31.0,-100.00,SSE,165,0.0,9.0,37,0.00,,,0.00,0.000000,,2013-02-12 01:51:00,
2013-02-11 18:21:00,53.0,31.0,-100.00,ESE,121,0.0,0.0,42,0.00,,,0.00,0.000000,,2013-02-12 02:21:00,
2013-02-11 18:31:00,53.0,31.0,-100.00,ESE,121,0.0,0.0,42,0.00,,,0.00,0.000000,,2013-02-12 02:31:00,
2013-02-11 18:41:00,53.0,31.0,-100.00,ESE,121,0.0,0.0,42,0.00,,,0.00,0.000000,,2013-02-12 02:41:00,
2013-02-11 18:52:00,53.0,31.0,-100.00,ESE,121,0.0,0.0,42,0.00,,,0.00,0.000000,,2013-02-12 02:52:00,
2013-02-11 19:21:00,52.0,30.0,-100.00,North,357,0.0,0.0,42,0.00,,,0.00,0.000000,,2013-02-12 03:21:00,
2013-02-11 19:31:00,52.0,30.0,-100.00,North,357,0.0,0.0,42,0.00,,,0.00,0.000000,,2013-02-12 03:31:00,
2013-02-11 19:41:00,52.0,30.0,-100.00,North,357,0.0,0.0,42,0.00,,,0.00,0.000000,,2013-02-12 03:41:00,
2013-02-11 19:51:00,52.0,30.0,-100.00,North,357,0.0,0.0,42,0.00,,,0.00,0.000000,,2013-02-12 03:51:00,
2013-02-11 20:11:00,52.0,32.0,-100.00,East,81,0.0,0.0,47,0.00,,,0.00,0.000000,,2013-02-12 04:11:00,
2013-02-11 20:21:00,52.0,32.0,-100.00,East,81,0.0,0.0,47,0.00,,,0.00,0.000000,,2013-02-12 04:21:00,
2013-02-11 20:31:00,52.0,32.0,-100.00,East,81,0.0,0.0,47,0.00,,,0.00,0.000000,,2013-02-12 04:31:00,
2013-02-11 20:41:00,52.0,32.0,-100.00,East,81,0.0,0.0,47,0.00,,,0.00,0.000000,,2013-02-12 04:41:00,
2013-02-11 20:51:00,52.0,32.0,-100.00,East,81,0.0,0.0,47,0.00,,,0.00,0.000000,,2013-02-12 04:51:00,
2013-02-11 21:21:00,52.0,30.0,-100.00,East,94,0.0,0.0,43,0.00,,,0.00,0.000000,,2013-02-12 05:21:00,
2013-02-11 21:31:00,52.0,30.0,-100.00,East,94,0.0,0.0,43,0.00,,,0.00,0.000000,,2013-02-12 05:31:00,
2013-02-11 21:42:00,52.0,30.0,-100.00,East,94,0.0,0.0,43,0.00,,,0.00,0.000000,,2013-02-12 05:42:00,
2013-02-11 21:52:00,52.0,30.0,-100.00,East,94,0.0,0.0,43,0.00,,,0.00,0.000000,,2013-02-12 05:52:00,
2013-02-11 22:12:00,51.0,30.0,-100.00,SE,126,0.0,0.0,44,0.00,,,0.00,0.000000,,2013-02-12 06:12:00,
2013-02-11 22:21:00,51.0,30.0,-100.00,SE,126,0.0,0.0,44,0.00,,,0.00,0.000000,,2013-02-12 06:21:00,
2013-02-11 22:31:00,51.0,30.0,-100.00,SE,126,0.0,0.0,44,0.00,,,0.00,0.000000,,2013-02-12 06:31:00,
2013-02-11 22:42:00,51.0,30.0,-100.00,SE,126,0.0,0.0,44,0.00,,,0.00,0.000000,,2013-02-12 06:42:00,
2013-02-11 22:51:00,51.0,30.0,-100.00,SE,126,0.0,0.0,44,0.00,,,0.00,0.000000,,2013-02-12 06:51:00,
2013-02-11 23:21:00,51.0,31.0,-100.00,East,83,0.0,0.0,46,0.00,,,0.00,0.000000,,2013-02-12 07:21:00,
2013-02-11 23:31:00,51.0,31.0,-100.00,East,83,0.0,0.0,46,0.00,,,0.00,0.000000,,2013-02-12 07:31:00,
2013-02-11 23:41:00,51.0,31.0,-100.00,East,83,0.0,0.0,46,0.00,,,0.00,0.000000,,2013-02-12 07:41:00,
2013-02-11 23:51:00,51.0,31.0,-100.00,East,83,0.0,0.0,46,0.00,,,0.00,0.000000,,2013-02-12 07:51:00,